Accueil
METAR-TAF:

METAR-TAF

Aéroports :

Shanghai-Pudong, Chine

Aéroport international de Shanghai-Pudong

latitude: 31-07N, longitude: 121-46E, altitude: 4 m

Observation

Le bulletin a été fait il y a 38 minutes, à 11:30 UTC
Vent 4 kt de est, variant entre nord/nord-est et sud-est
Température 8°C
Humidité 81%
Pression 1020 hPa
Visibilité: 6000 m
Nuages fragmentés à une hauteur de 3300 ft

METAR: ZSPD 221130Z 10002MPS 020V140 6000 BKN033 08/05 Q1020 NOSIG

Heure: 20:08 (12:08 UTC)

Prévision

Le bulletin a été fait il y a 2 heures et 45 minutes, à 09:23 UTC
Prévision valable du 22 à 12 UTC au 23 à 12 UTC
Vent 8 kt de nord
Visibilité: 5000 m
Nuages fragmentés à une hauteur de 1300 ft
brume

TAF: ZSPD 220923Z 2212/2312 01004MPS 5000 BR BKN013 TX08/2306Z TN04/2221Z

Observations et prévisions météorologiques de plus de 4000 aéroports (messages METAR et TAF).

Les stations disponibles sont représentées par des disques jaunes et rouges sur la carte.

Passer la souris dessus pour voir le nom de la station.

Cliquer dessus pour voir les observations et prévisions météorologiques.

Pour changer de carte: cliquez sur les boutons verts avec une croix noire pour zoomer, sur le bouton vert avec un tiret pour effectuer un zoom arrière, ou sur les flèches vertes pour les cartes adjacentes.


METAR-TAF: